createdAt,value
2023-03-23T15:58:40.101Z,3.33
2023-03-23T16:01:15.830Z,3.65
2023-03-23T16:03:48.933Z,3.70
2023-03-23T16:06:25.174Z,3.67
2023-03-23T16:08:55.523Z,3.30
2023-03-23T16:11:31.293Z,3.08
2023-03-23T16:14:01.060Z,3.50
2023-03-23T16:16:35.669Z,4.00
2023-03-23T16:19:05.720Z,3.38
2023-03-23T16:21:35.696Z,3.40
2023-03-23T16:24:04.983Z,3.33
2023-03-23T16:26:36.384Z,3.17
2023-03-23T16:29:17.201Z,3.35
2023-03-23T16:31:53.801Z,3.08
2023-03-23T16:34:22.849Z,3.63
2023-03-23T16:39:21.269Z,3.20
2023-03-23T16:41:54.852Z,2.53
2023-03-23T16:44:24.017Z,1.95
2023-03-23T16:49:23.586Z,3.30
2023-03-23T16:51:54.987Z,3.97
2023-03-23T16:54:24.305Z,3.30
2023-03-23T16:56:55.074Z,1.30
2023-03-23T16:59:26.500Z,0.70
2023-03-23T17:02:03.217Z,1.02
2023-03-23T17:04:33.219Z,0.93
2023-03-23T17:07:02.730Z,0.80
2023-03-23T17:09:31.789Z,1.35
2023-03-23T17:12:02.756Z,1.45
2023-03-23T17:14:33.007Z,0.93
2023-03-23T17:17:02.546Z,1.25
2023-03-23T17:19:31.833Z,1.27
2023-03-23T17:22:01.575Z,2.13
2023-03-23T17:24:30.655Z,1.83
2023-03-23T17:27:01.572Z,4.35
2023-03-23T17:29:30.916Z,2.28
2023-03-23T17:34:31.213Z,3.25
2023-03-23T17:37:00.704Z,3.42
2023-03-23T17:39:31.747Z,3.15
2023-03-23T17:42:15.356Z,3.80
2023-03-23T17:44:45.112Z,3.92
2023-03-23T17:47:14.826Z,3.35
2023-03-23T17:49:43.972Z,3.80
2023-03-23T17:52:13.921Z,4.40
2023-03-23T17:54:44.170Z,4.07
2023-03-23T17:57:15.628Z,3.60
2023-03-23T17:59:44.801Z,4.15
2023-03-23T18:02:15.102Z,3.78
2023-03-23T18:04:44.448Z,4.13
2023-03-23T18:09:45.734Z,5.43
2023-03-23T18:12:18.143Z,5.22
2023-03-23T18:14:47.607Z,3.90
2023-03-23T18:17:16.937Z,3.88
2023-03-23T18:19:47.382Z,3.03
2023-03-23T18:22:16.962Z,2.83
2023-03-23T18:24:47.330Z,1.85
2023-03-23T18:27:18.929Z,1.92
2023-03-23T18:29:49.105Z,2.28
2023-03-23T18:32:19.876Z,2.20
2023-03-23T18:34:50.438Z,3.00
2023-03-23T18:37:24.240Z,3.20
2023-03-23T18:39:56.432Z,3.78
2023-03-23T18:42:30.187Z,3.13
2023-03-23T18:45:05.468Z,4.97
2023-03-23T18:47:37.775Z,5.10
2023-03-23T18:50:12.123Z,4.82
2023-03-23T18:52:47.014Z,4.43
2023-03-23T18:55:47.498Z,5.20
2023-03-23T18:58:23.242Z,4.97
2023-03-23T19:00:59.619Z,5.72
2023-03-23T19:03:31.015Z,5.50
2023-03-23T19:06:08.552Z,5.65
2023-03-23T19:08:42.318Z,5.30
2023-03-23T19:11:19.508Z,5.07
2023-03-23T19:14:01.614Z,5.30
2023-03-23T19:16:39.379Z,6.90
2023-03-23T19:19:12.456Z,7.10
2023-03-23T19:21:47.056Z,6.90
2023-03-23T19:24:19.243Z,6.13
2023-03-23T19:26:56.471Z,6.47
2023-03-23T19:29:27.693Z,7.38
2023-03-23T19:31:59.728Z,5.55
2023-03-23T19:34:30.751Z,4.90
2023-03-23T19:37:05.733Z,4.10
2023-03-23T19:39:37.114Z,4.22
2023-03-23T19:42:09.058Z,3.80
2023-03-23T19:44:42.407Z,2.88
2023-03-23T19:47:12.845Z,2.58
2023-03-23T19:49:42.875Z,3.63
2023-03-23T19:52:14.420Z,3.03
2023-03-23T19:54:48.042Z,1.90
2023-03-23T19:57:20.286Z,2.35
2023-03-23T19:59:53.460Z,3.95
2023-03-23T20:02:25.026Z,4.13
2023-03-23T20:04:56.643Z,3.10
2023-03-23T20:07:29.221Z,2.72
2023-03-23T20:14:59.184Z,2.80
2023-03-23T20:17:28.985Z,2.10
2023-03-23T20:20:01.466Z,2.05
2023-03-23T20:22:33.392Z,2.17
2023-03-23T20:25:03.676Z,1.25
2023-03-23T20:27:34.214Z,2.95
2023-03-23T20:30:09.382Z,2.05
2023-03-23T20:32:42.909Z,2.05
2023-03-23T20:35:14.806Z,1.50
2023-03-23T20:37:46.313Z,2.17
2023-03-23T20:42:48.532Z,2.20
2023-03-23T20:45:20.459Z,3.08
2023-03-23T20:47:52.855Z,2.90
2023-03-23T20:50:24.882Z,2.60
2023-03-23T20:52:55.181Z,3.13
2023-03-23T20:55:25.652Z,3.30
2023-03-23T20:57:59.828Z,3.70
2023-03-23T21:00:37.803Z,3.00
2023-03-23T21:03:11.768Z,5.03
2023-03-23T21:05:42.952Z,3.85
2023-03-23T21:08:13.432Z,4.03
2023-03-23T21:10:45.160Z,4.95
2023-03-23T21:13:15.227Z,3.80
2023-03-23T21:15:50.018Z,3.45
2023-03-23T21:18:22.177Z,3.65
2023-03-23T21:20:53.498Z,3.95
2023-03-23T21:23:26.860Z,4.43
2023-03-23T21:26:02.497Z,3.97
2023-03-23T21:28:34.183Z,4.03
2023-03-23T21:31:09.075Z,4.32
2023-03-23T21:33:38.666Z,4.60
2023-03-23T21:36:11.705Z,4.38
2023-03-23T21:38:43.145Z,3.45
2023-03-23T21:41:15.519Z,3.88
2023-03-23T21:43:46.152Z,4.65
2023-03-23T21:46:21.157Z,4.57
2023-03-23T21:48:52.482Z,4.03
2023-03-23T21:51:27.902Z,4.07
2023-03-23T21:53:58.266Z,4.50
2023-03-23T21:56:31.971Z,2.92
2023-03-23T21:59:03.796Z,3.22
2023-03-23T22:01:41.378Z,2.88
2023-03-23T22:04:11.421Z,3.80
2023-03-23T22:06:42.441Z,4.22
2023-03-23T22:09:13.584Z,3.67
2023-03-23T22:11:46.874Z,3.58
2023-03-23T22:14:16.482Z,4.13
2023-03-23T22:16:48.776Z,3.80
2023-03-23T22:19:18.538Z,3.75
2023-03-23T22:24:17.700Z,3.53
2023-03-23T22:26:47.855Z,6.07
2023-03-23T22:29:18.039Z,4.45
2023-03-23T22:31:49.211Z,4.05
2023-03-23T22:34:18.710Z,3.50
2023-03-23T22:39:17.246Z,3.33
2023-03-23T22:41:46.956Z,2.20
2023-03-23T22:46:49.426Z,2.75
2023-03-23T22:49:18.958Z,2.38
2023-03-23T22:51:48.439Z,2.25
2023-03-23T22:54:17.843Z,2.00
2023-03-23T22:56:47.351Z,2.70
2023-03-23T22:59:16.956Z,2.72
2023-03-23T23:01:47.175Z,2.13
2023-03-23T23:04:17.888Z,2.72
2023-03-23T23:06:47.597Z,2.45
2023-03-23T23:09:16.782Z,3.20
2023-03-23T23:14:15.445Z,2.17
2023-03-23T23:16:44.948Z,2.53
2023-03-23T23:19:14.542Z,2.30
2023-03-23T23:21:45.701Z,2.58
2023-03-23T23:24:15.168Z,2.78
2023-03-23T23:31:44.022Z,3.03
2023-03-23T23:36:45.808Z,2.47
2023-03-23T23:39:15.464Z,2.65
2023-03-23T23:41:45.296Z,2.72
2023-03-23T23:46:43.759Z,2.78
2023-03-23T23:49:13.591Z,2.80
2023-03-23T23:51:44.768Z,3.67
2023-03-23T23:54:14.711Z,3.30
2023-03-23T23:56:44.190Z,3.47
2023-03-23T23:59:13.564Z,2.70
